METAR rapporten vliegvelden

   
LEMG - Malaga
Gewijzigd: 25-06-2018 15:00
Helder  
Helder  
   Wind: ZZO 18.5 km/h
Wind: ZZO 18.5 km/h
Temperatuur: 29°C
Gevoelstemperatuur: 28°C
Dauwpunt: 14°C
Vochtigheid: 40%
Barometer: 1016 hPa
Zicht: meer dan 10 km
Bewolking: Helder
LEMG 251300Z 15010KT 110V200 CAVOK 29/14 Q1016 NOSIG
LEAL - Alicante
Gewijzigd: 25-06-2018 15:00
Helder  
Helder  
   Wind: OZO 18.5 km/h
Wind: OZO 18.5 km/h
Temperatuur: 27°C
Gevoelstemperatuur: 28°C
Dauwpunt: 19°C
Vochtigheid: 62%
Barometer: 1016 hPa
Zicht: meer dan 10 km
Bewolking: Helder
LEAL 251300Z 11010KT 070V150 CAVOK 27/19 Q1016 NOSIG
LEBB - Bilbao
Gewijzigd: 25-06-2018 15:00
Helder  
Helder  
   Wind: NO 16.7 km/h
Wind: NO 16.7 km/h
Temperatuur: 29°C
Gevoelstemperatuur: 29°C
Dauwpunt: 16°C
Vochtigheid: 45%
Barometer: 1017 hPa
Zicht: meer dan 10 km
Bewolking: Helder
LEBB 251300Z 05009KT 350V080 CAVOK 29/16 Q1017 NOSIG
GCTS - Tenerife
Gewijzigd: 25-06-2018 15:00
Licht bewolkt  
Licht bewolkt  
   Wind: Oosten 27.8 km/h
Wind: Oosten 27.8 km/h
Temperatuur: 25°C
Dauwpunt: 17°C
Vochtigheid: 61%
Barometer: 1019 hPa
Bewolking: Licht bewolkt
Zicht: meer dan 10 km
Bewolking: Licht bewolkt 2000 ft
GCTS 251300Z 10015KT 060V140 9999 FEW020 25/17 Q1019 NOSIG
EIDW - Dublin
Gewijzigd: 25-06-2018 15:00
Helder  
Helder  
   Wind: OZO 14.8 km/h
Wind: OZO 14.8 km/h
Temperatuur: 23°C
Dauwpunt: 10°C
Vochtigheid: 44%
Barometer: 1027 hPa
Zicht: meer dan 10 km
Bewolking: Helder
EIDW 251300Z 11008KT CAVOK 23/10 Q1027 NOSIG
LPFR - Albufeira
Gewijzigd: 25-06-2018 15:00
Licht bewolkt  
Licht bewolkt  
   Wind: ZW 16.7 km/h
Wind: ZW 16.7 km/h
Temperatuur: 22°C
Dauwpunt: 17°C
Vochtigheid: 73%
Barometer: 1017 hPa
Bewolking: Licht bewolkt
Zicht: meer dan 10 km
Bewolking: Licht bewolkt 2000 ft
LPFR 251300Z 22009KT 9999 FEW020 22/17 Q1017

Script ontwikkeld door  Saratoga-weather.org Aangepast voor de template door  Weerstation Leuven

U vindt ons ook hier:

Het Weer Aktueel

European Weather Network

WeatherCloud

Weather Underground

Benelux Weer Netwerk

WeatherlinkIP

Apparatuur in gebruik:

Weerstation
Davis VP2

Weerprogramma
consoleWD

Weercomputer
Raspberry

Gesponsord door
Stef van Bakel koeltechniek

Davis VP2

consoleWD

Raspberry

Stef van Bakel koeltechniek